Time;durP1;ratioP1;P1;durP2;ratioP2;P2;SDS_P1;SDS_P2;PMS_P1;PMS_P2;Temp;Humidity;BMP_temperature;BMP_pressure;BME280_temperature;BME280_humidity;BME280_pressure;Samples;Min_cycle;Max_cycle;Signal;HPM_P1;HPM_P2
2022/10/18 00:01:04;;;;;;;32.83;29.93;;;12.10;99.90;;;;;;5041985;28;20617;-77
2022/10/18 00:03:31;;;;;;;28.03;26.47;;;12.10;99.90;;;;;;5035997;28;20270;-77
2022/10/18 00:05:57;;;;;;;26.03;24.33;;;12.10;99.90;;;;;;5035050;28;20309;-78
2022/10/18 00:08:23;;;;;;;10.37;9.50;;;12.10;99.90;;;;;;5034921;28;20186;-78
2022/10/18 00:10:49;;;;;;;20.43;19.10;;;12.20;99.90;;;;;;5036848;28;20743;-78
2022/10/18 00:13:15;;;;;;;24.40;22.07;;;12.10;99.90;;;;;;5036838;28;20186;-78
2022/10/18 00:15:53;;;;;;;21.77;20.43;;;12.10;99.90;;;;;;5035034;28;20209;-78
2022/10/18 00:18:19;;;;;;;25.97;24.53;;;12.10;99.90;;;;;;5031103;28;20199;-78
2022/10/18 00:20:54;;;;;;;17.63;16.73;;;12.10;99.90;;;;;;5017395;28;20187;-78
2022/10/18 00:23:20;;;;;;;17.27;16.13;;;12.10;99.90;;;;;;5022790;28;20202;-78
2022/10/18 00:25:46;;;;;;;17.07;16.03;;;12.00;99.90;;;;;;5035943;28;20237;-78
2022/10/18 00:28:11;;;;;;;18.43;17.17;;;12.00;99.90;;;;;;5036219;28;20858;-78
2022/10/18 00:30:37;;;;;;;11.27;10.37;;;12.00;99.90;;;;;;5035280;28;20265;-78
2022/10/18 00:33:03;;;;;;;16.23;14.93;;;12.00;99.90;;;;;;5035488;28;20270;-78
2022/10/18 00:35:28;;;;;;;15.10;13.37;;;12.10;99.90;;;;;;5035105;28;20178;-78
2022/10/18 00:37:54;;;;;;;10.07;8.83;;;12.00;99.90;;;;;;5036666;28;20179;-78
2022/10/18 00:40:20;;;;;;;15.57;14.53;;;11.90;99.90;;;;;;5035181;28;20697;-78
2022/10/18 00:42:46;;;;;;;17.23;16.23;;;11.90;99.90;;;;;;5035081;28;20270;-78
2022/10/18 00:45:16;;;;;;;18.97;17.60;;;11.90;99.90;;;;;;5036791;28;20277;-77
2022/10/18 00:47:46;;;;;;;17.03;15.83;;;11.80;99.90;;;;;;5047027;28;20206;-77
2022/10/18 00:50:12;;;;;;;17.03;15.33;;;11.80;99.90;;;;;;5044374;28;20197;-77
2022/10/18 00:52:44;;;;;;;17.90;16.67;;;11.80;99.90;;;;;;5048304;28;20261;-78
2022/10/18 00:55:10;;;;;;;17.03;15.57;;;11.90;99.90;;;;;;5014929;28;20644;-78
2022/10/18 00:57:39;;;;;;;19.07;17.30;;;11.90;99.90;;;;;;5016233;28;20241;-77
2022/10/18 01:00:08;;;;;;;20.30;16.60;;;11.90;99.90;;;;;;5016477;28;20745;-78
2022/10/18 01:02:40;;;;;;;22.07;19.83;;;11.80;99.90;;;;;;5015659;28;20191;-77
2022/10/18 01:05:07;;;;;;;19.13;17.43;;;11.90;99.90;;;;;;5040519;28;20227;-77
2022/10/18 01:08:07;;;;;;;18.40;16.80;;;11.80;99.90;;;;;;5043461;28;20209;-77
2022/10/18 01:10:45;;;;;;;20.37;18.90;;;11.80;99.90;;;;;;5041363;28;20234;-78
2022/10/18 01:13:45;;;;;;;19.07;17.63;;;11.90;99.90;;;;;;5033210;28;20182;-78
2022/10/18 01:16:22;;;;;;;24.30;22.30;;;11.90;99.90;;;;;;5034928;28;20182;-78
2022/10/18 01:18:55;;;;;;;25.40;23.70;;;12.00;99.90;;;;;;5033886;28;20702;-77
2022/10/18 01:21:46;;;;;;;18.27;17.03;;;12.10;99.90;;;;;;5035049;28;20186;-78
2022/10/18 01:24:34;;;;;;;16.93;15.63;;;12.10;99.90;;;;;;5033220;28;20190;-77
2022/10/18 01:27:19;;;;;;;19.77;18.20;;;12.20;99.90;;;;;;5033541;28;20264;-78
2022/10/18 01:29:57;;;;;;;22.07;20.17;;;12.30;99.90;;;;;;5034518;28;20206;-77
2022/10/18 01:32:31;;;;;;;21.00;19.80;;;12.30;99.90;;;;;;5031445;28;20214;-77
2022/10/18 01:35:02;;;;;;;23.17;21.20;;;12.40;99.90;;;;;;5034027;28;20206;-78
2022/10/18 01:37:30;;;;;;;30.77;28.87;;;12.50;99.90;;;;;;5032209;28;20187;-77
2022/10/18 01:39:58;;;;;;;72.60;68.50;;;12.50;99.90;;;;;;5033505;28;20222;-78
2022/10/18 01:42:25;;;;;;;83.40;78.50;;;12.50;99.90;;;;;;5032744;28;20183;-78
2022/10/18 01:44:52;;;;;;;86.60;81.53;;;12.60;99.90;;;;;;5033376;28;20185;-78
2022/10/18 01:47:19;;;;;;;56.87;52.97;;;12.60;99.90;;;;;;5031866;28;20268;-78
2022/10/18 01:49:45;;;;;;;20.07;18.37;;;12.60;99.90;;;;;;5032087;28;20211;-77
2022/10/18 01:52:15;;;;;;;17.07;14.57;;;12.70;99.90;;;;;;5031546;28;20270;-77
2022/10/18 01:54:49;;;;;;;18.00;11.27;;;12.70;99.90;;;;;;5032016;28;20301;-77
2022/10/18 01:57:33;;;;;;;13.10;11.90;;;12.70;99.90;;;;;;5030635;28;20179;-77
2022/10/18 02:00:23;;;;;;;15.80;11.27;;;12.70;99.90;;;;;;5032533;28;20209;-77
2022/10/18 02:03:05;;;;;;;16.73;15.10;;;12.80;99.90;;;;;;5033803;28;20489;-78
2022/10/18 02:06:02;;;;;;;38.03;35.43;;;12.80;99.90;;;;;;5046039;28;20254;-77
2022/10/18 02:08:52;;;;;;;35.47;32.87;;;12.80;99.90;;;;;;5033547;28;20190;-77
2022/10/18 02:11:19;;;;;;;36.23;33.87;;;12.90;99.90;;;;;;5037318;28;20198;-77
2022/10/18 02:14:02;;;;;;;41.00;37.77;;;12.90;99.90;;;;;;5039499;28;20240;-78
2022/10/18 02:17:03;;;;;;;35.07;32.60;;;13.00;99.90;;;;;;5034228;28;20337;-78
2022/10/18 02:19:55;;;;;;;22.63;20.53;;;13.00;99.90;;;;;;5030904;28;20218;-79
2022/10/18 02:22:26;;;;;;;17.60;16.20;;;13.10;99.90;;;;;;5027969;28;20221;-77
2022/10/18 02:24:57;;;;;;;37.37;34.50;;;13.10;99.90;;;;;;5035195;28;20179;-77
2022/10/18 02:27:24;;;;;;;51.23;48.00;;;13.10;99.90;;;;;;5037983;28;20207;-77
2022/10/18 02:29:50;;;;;;;95.47;89.93;;;13.20;99.90;;;;;;5035168;28;20274;-77
2022/10/18 02:32:30;;;;;;;143.00;134.83;;;13.20;99.90;;;;;;5030319;28;20175;-77
2022/10/18 02:35:12;;;;;;;197.17;186.43;;;13.20;99.90;;;;;;5030451;28;20679;-77
2022/10/18 02:37:39;;;;;;;188.00;177.30;;;13.20;99.90;;;;;;5029544;28;20191;-77
2022/10/18 02:40:07;;;;;;;170.40;160.27;;;13.20;99.90;;;;;;5027113;28;20287;-77
2022/10/18 02:42:35;;;;;;;118.67;112.07;;;13.20;99.90;;;;;;5010543;28;20258;-77
2022/10/18 02:45:02;;;;;;;73.80;69.40;;;13.20;99.90;;;;;;5010572;28;20211;-76
2022/10/18 02:47:27;;;;;;;52.93;49.33;;;13.30;99.90;;;;;;5011439;28;20212;-77
2022/10/18 02:49:53;;;;;;;66.70;62.30;;;13.20;99.90;;;;;;5030180;28;20225;-77
2022/10/18 02:52:19;;;;;;;71.50;66.50;;;13.10;99.90;;;;;;5031319;28;20175;-77
2022/10/18 02:54:44;;;;;;;60.23;56.40;;;13.10;99.90;;;;;;5033164;28;20547;-77
2022/10/18 02:57:10;;;;;;;93.00;87.50;;;13.10;99.90;;;;;;5035870;28;20206;-77
2022/10/18 02:59:36;;;;;;;102.37;96.97;;;13.10;99.90;;;;;;5034682;28;20289;-77
2022/10/18 03:02:02;;;;;;;68.07;63.20;;;13.20;99.90;;;;;;5035367;28;20592;-77
2022/10/18 03:04:27;;;;;;;52.83;49.33;;;13.20;99.90;;;;;;5036676;28;20186;-77
2022/10/18 03:06:53;;;;;;;40.43;37.47;;;13.20;99.90;;;;;;5037428;28;20245;-76
2022/10/18 03:09:19;;;;;;;38.37;35.47;;;13.20;99.90;;;;;;5033135;28;20287;-76
2022/10/18 03:11:45;;;;;;;51.93;48.13;;;13.20;99.90;;;;;;5034341;28;20274;-77
2022/10/18 03:14:10;;;;;;;43.77;40.30;;;13.20;99.90;;;;;;5033277;28;20598;-76
2022/10/18 03:16:36;;;;;;;45.03;41.90;;;13.20;99.90;;;;;;5036366;28;20187;-76
2022/10/18 03:19:02;;;;;;;54.63;51.17;;;13.20;99.90;;;;;;5040339;28;20223;-77
2022/10/18 03:21:28;;;;;;;72.67;68.57;;;13.20;99.90;;;;;;5041396;28;20198;-76
2022/10/18 03:23:54;;;;;;;52.90;49.57;;;13.20;99.90;;;;;;5040847;28;20183;-76
2022/10/18 03:26:20;;;;;;;36.87;34.67;;;13.20;99.90;;;;;;5033068;28;20570;-76
2022/10/18 03:28:46;;;;;;;81.67;76.77;;;13.20;99.90;;;;;;5031939;28;20281;-77
2022/10/18 03:31:12;;;;;;;54.53;50.43;;;13.20;99.90;;;;;;5034881;28;20187;-78
2022/10/18 03:33:38;;;;;;;45.97;42.87;;;13.20;99.90;;;;;;5035281;28;20180;-77
2022/10/18 03:36:04;;;;;;;75.83;71.77;;;13.20;99.90;;;;;;5035916;28;20179;-77
2022/10/18 03:38:30;;;;;;;69.17;65.30;;;13.20;99.90;;;;;;5036740;28;20217;-76
2022/10/18 03:40:55;;;;;;;31.47;28.90;;;13.20;99.90;;;;;;5035620;28;20179;-77
2022/10/18 03:43:21;;;;;;;22.80;21.20;;;13.20;99.90;;;;;;5034414;28;20715;-77
2022/10/18 03:45:47;;;;;;;18.23;16.77;;;13.20;99.90;;;;;;5035267;28;20183;-77
2022/10/18 03:48:13;;;;;;;18.80;17.20;;;13.30;99.90;;;;;;5029417;28;20655;-77
2022/10/18 03:50:39;;;;;;;14.63;13.43;;;13.20;99.90;;;;;;5033566;28;20257;-77
2022/10/18 03:53:05;;;;;;;17.40;15.63;;;13.30;99.90;;;;;;5032439;28;20179;-77
2022/10/18 03:55:31;;;;;;;42.20;39.10;;;13.30;99.90;;;;;;5034073;28;20617;-78
2022/10/18 03:57:56;;;;;;;52.17;48.83;;;13.30;99.90;;;;;;5037477;28;20232;-77
2022/10/18 04:00:22;;;;;;;51.63;48.10;;;13.30;99.90;;;;;;5036988;28;20210;-77
2022/10/18 04:02:48;;;;;;;102.10;96.17;;;13.30;99.90;;;;;;5033725;28;20186;-77
2022/10/18 04:05:14;;;;;;;142.67;134.70;;;13.30;99.90;;;;;;5033940;28;20183;-77
2022/10/18 04:07:41;;;;;;;122.20;114.97;;;13.30;99.90;;;;;;5034391;28;20272;-76
2022/10/18 04:10:07;;;;;;;76.63;72.00;;;13.20;99.90;;;;;;5035093;28;20286;-77
2022/10/18 04:12:34;;;;;;;45.03;42.37;;;13.30;99.90;;;;;;5035092;28;20202;-78
2022/10/18 04:15:00;;;;;;;46.73;43.33;;;13.20;99.90;;;;;;5036026;28;20257;-78
2022/10/18 04:17:26;;;;;;;47.53;44.20;;;13.20;99.90;;;;;;5035094;28;20558;-77
2022/10/18 04:19:52;;;;;;;38.37;35.87;;;13.20;99.90;;;;;;5034092;28;20229;-77
2022/10/18 04:22:17;;;;;;;22.33;20.80;;;13.30;99.90;;;;;;5035847;28;20187;-77
2022/10/18 04:24:43;;;;;;;17.87;15.90;;;13.30;99.90;;;;;;5034574;28;20594;-77
2022/10/18 04:27:09;;;;;;;17.43;16.20;;;13.30;99.90;;;;;;5035275;28;20202;-78
2022/10/18 04:29:35;;;;;;;45.67;42.67;;;13.30;99.90;;;;;;5036355;28;20230;-78
2022/10/18 04:32:00;;;;;;;47.20;44.27;;;13.30;99.90;;;;;;5037286;28;20266;-77
2022/10/18 04:34:26;;;;;;;43.43;40.73;;;13.30;99.90;;;;;;5040316;28;20190;-77
2022/10/18 04:36:53;;;;;;;27.33;25.07;;;13.40;99.90;;;;;;5033978;28;20179;-78
2022/10/18 04:39:19;;;;;;;23.23;21.73;;;13.40;99.90;;;;;;5035730;28;20580;-77
2022/10/18 04:41:44;;;;;;;24.97;22.93;;;13.40;99.90;;;;;;5035198;28;20183;-77
2022/10/18 04:44:10;;;;;;;23.50;21.93;;;13.50;99.90;;;;;;5015237;28;20187;-77
2022/10/18 04:46:36;;;;;;;20.10;18.40;;;13.50;99.90;;;;;;5012772;28;20615;-77
2022/10/18 04:49:02;;;;;;;17.43;16.00;;;13.50;99.90;;;;;;5010430;28;20655;-77
2022/10/18 04:51:28;;;;;;;15.70;14.33;;;13.50;99.90;;;;;;5014168;28;20691;-77
2022/10/18 04:53:54;;;;;;;15.30;13.83;;;13.50;99.90;;;;;;5013083;28;20249;-77
2022/10/18 04:56:20;;;;;;;34.73;32.40;;;13.40;99.90;;;;;;5014652;28;20180;-74
2022/10/18 04:58:46;;;;;;;92.23;86.97;;;13.40;99.90;;;;;;5011784;28;20286;-73
2022/10/18 05:01:12;;;;;;;91.70;86.63;;;13.30;99.90;;;;;;5013678;28;20183;-75
2022/10/18 05:03:38;;;;;;;82.63;77.93;;;13.30;99.90;;;;;;5013402;28;20240;-74
2022/10/18 05:06:04;;;;;;;68.17;63.93;;;13.20;99.90;;;;;;4996871;28;20210;-73
2022/10/18 05:08:32;;;;;;;59.30;55.33;;;13.20;99.90;;;;;;5011220;28;20190;-74
2022/10/18 05:10:59;;;;;;;54.60;51.17;;;13.30;99.90;;;;;;5010565;28;20188;-74
2022/10/18 05:13:25;;;;;;;59.00;55.07;;;13.30;99.90;;;;;;5011862;28;20214;-74
2022/10/18 05:15:51;;;;;;;52.93;49.77;;;13.30;99.90;;;;;;5010469;28;20218;-74
2022/10/18 05:18:17;;;;;;;52.30;49.00;;;13.20;99.90;;;;;;5010578;28;20191;-74
2022/10/18 05:20:43;;;;;;;39.97;37.23;;;13.20;99.90;;;;;;5010354;28;20791;-75
2022/10/18 05:23:09;;;;;;;56.67;52.70;;;13.20;99.90;;;;;;5011868;28;20206;-74
2022/10/18 05:25:39;;;;;;;59.83;56.13;;;13.20;99.90;;;;;;5011440;28;20567;-72
2022/10/18 05:28:06;;;;;;;57.60;53.77;;;13.20;99.90;;;;;;5010103;28;20218;-72
2022/10/18 05:30:32;;;;;;;50.20;46.97;;;13.20;99.90;;;;;;5010575;28;20200;-72
2022/10/18 05:32:57;;;;;;;44.33;41.57;;;13.10;99.90;;;;;;5010399;28;20272;-71
2022/10/18 05:35:23;;;;;;;39.80;36.73;;;13.10;99.90;;;;;;5011816;28;20168;-72
2022/10/18 05:37:49;;;;;;;45.27;42.13;;;13.10;99.90;;;;;;5011432;28;20192;-71
2022/10/18 05:40:15;;;;;;;52.57;49.50;;;13.10;99.90;;;;;;5011362;28;20230;-71
2022/10/18 05:42:40;;;;;;;48.60;45.03;;;13.10;99.90;;;;;;5017088;28;20508;-72
2022/10/18 05:45:07;;;;;;;36.90;34.40;;;13.10;99.90;;;;;;5030718;28;20187;-72
2022/10/18 05:47:33;;;;;;;35.57;33.10;;;13.10;99.90;;;;;;5032525;28;20303;-72
2022/10/18 05:49:58;;;;;;;34.17;31.90;;;13.10;99.90;;;;;;5030100;28;20297;-71
2022/10/18 05:52:24;;;;;;;38.80;35.67;;;13.20;99.90;;;;;;5030297;28;20647;-71
2022/10/18 05:54:51;;;;;;;31.93;29.63;;;13.10;99.90;;;;;;5030835;28;20616;-72
2022/10/18 05:57:16;;;;;;;24.20;22.40;;;13.20;99.90;;;;;;5030710;28;20642;-72
2022/10/18 05:59:43;;;;;;;18.17;15.23;;;13.20;99.90;;;;;;5030722;28;20260;-72
2022/10/18 06:02:10;;;;;;;19.00;17.63;;;13.20;99.90;;;;;;5030608;28;20198;-72
2022/10/18 06:04:36;;;;;;;62.40;57.60;;;13.20;99.90;;;;;;5029009;28;20179;-72
2022/10/18 06:07:06;;;;;;;37.20;34.60;;;13.20;99.90;;;;;;5030635;28;20210;-72
2022/10/18 06:09:32;;;;;;;47.53;44.43;;;13.20;99.90;;;;;;5030444;28;20249;-71
2022/10/18 06:11:59;;;;;;;70.67;66.40;;;13.20;99.90;;;;;;5028148;28;20183;-72
2022/10/18 06:14:25;;;;;;;52.30;48.43;;;13.20;99.90;;;;;;5029493;28;20179;-71
2022/10/18 06:16:51;;;;;;;63.03;59.10;;;13.20;99.90;;;;;;5030158;28;20205;-71
2022/10/18 06:19:16;;;;;;;63.33;58.87;;;13.30;99.90;;;;;;5029376;28;20263;-71
2022/10/18 06:21:43;;;;;;;69.17;64.97;;;13.30;99.90;;;;;;5028396;28;20185;-71
2022/10/18 06:24:08;;;;;;;19.13;17.43;;;13.40;99.90;;;;;;5030323;28;20186;-71
2022/10/18 06:26:34;;;;;;;45.00;42.13;;;13.40;99.90;;;;;;5030698;28;20210;-71
2022/10/18 06:29:00;;;;;;;28.70;25.83;;;13.40;99.90;;;;;;5028945;28;20279;-71
2022/10/18 06:31:26;;;;;;;44.20;40.73;;;13.30;99.90;;;;;;5029405;28;20303;-71
2022/10/18 06:33:51;;;;;;;36.90;34.40;;;13.30;99.90;;;;;;5030719;28;20739;-71
2022/10/18 06:36:22;;;;;;;42.23;38.53;;;13.30;99.90;;;;;;5030520;28;20195;-72
2022/10/18 06:38:49;;;;;;;43.17;39.93;;;13.40;99.90;;;;;;5029759;28;20207;-72
2022/10/18 06:41:14;;;;;;;44.80;40.97;;;13.40;99.90;;;;;;5030576;28;20187;-72
2022/10/18 06:43:40;;;;;;;50.37;46.73;;;13.50;99.90;;;;;;5016780;28;20612;-72
2022/10/18 06:46:07;;;;;;;41.70;38.10;;;13.60;99.90;;;;;;5010699;28;20175;-71
2022/10/18 06:48:34;;;;;;;43.33;40.53;;;13.70;99.90;;;;;;5010558;28;20230;-71
2022/10/18 06:51:04;;;;;;;70.37;66.00;;;13.80;99.90;;;;;;5010639;28;20183;-72
2022/10/18 06:53:32;;;;;;;16.77;15.47;;;14.00;99.90;;;;;;5010484;28;20184;-71
2022/10/18 06:56:10;;;;;;;40.13;37.07;;;14.20;99.90;;;;;;5009347;28;20183;-72
2022/10/18 06:58:35;;;;;;;160.27;150.50;;;14.40;99.90;;;;;;5010386;28;20274;-72
2022/10/18 07:01:09;;;;;;;139.57;131.27;;;14.80;99.90;;;;;;5010242;28;20267;-72
2022/10/18 07:03:35;;;;;;;32.33;30.23;;;15.10;99.90;;;;;;5010760;28;20184;-72
2022/10/18 07:06:06;;;;;;;24.50;22.43;;;15.40;99.90;;;;;;5010425;28;20182;-72
2022/10/18 07:08:32;;;;;;;59.00;55.00;;;15.70;99.90;;;;;;5009824;28;20644;-72
2022/10/18 07:10:58;;;;;;;37.77;34.80;;;16.10;99.90;;;;;;5009440;28;20275;-72
2022/10/18 07:13:24;;;;;;;28.37;26.20;;;16.40;99.90;;;;;;5010610;28;20279;-72
2022/10/18 07:16:00;;;;;;;18.97;17.60;;;16.70;99.90;;;;;;5009023;28;20226;-72
2022/10/18 07:18:26;;;;;;;18.40;13.60;;;16.80;99.90;;;;;;5010043;28;20183;-72
2022/10/18 07:20:52;;;;;;;23.93;22.13;;;17.00;99.90;;;;;;5010354;28;20186;-72
2022/10/18 07:23:19;;;;;;;22.30;20.60;;;17.30;99.90;;;;;;5010113;28;20680;-72
2022/10/18 07:25:45;;;;;;;8.77;7.57;;;17.50;99.90;;;;;;5010500;28;20183;-72
2022/10/18 07:28:11;;;;;;;9.57;7.17;;;17.30;99.90;;;;;;5009860;28;20216;-72
2022/10/18 07:30:37;;;;;;;18.70;8.00;;;17.00;99.90;;;;;;5010242;28;20202;-72
2022/10/18 07:33:03;;;;;;;20.13;18.33;;;16.80;99.90;;;;;;5010301;28;20209;-73
2022/10/18 07:35:29;;;;;;;26.23;24.57;;;16.80;99.90;;;;;;5011651;28;20176;-72
2022/10/18 07:37:54;;;;;;;23.27;21.17;;;16.80;99.90;;;;;;5010643;28;20572;-72
2022/10/18 07:40:20;;;;;;;16.13;14.77;;;16.90;99.90;;;;;;5011580;28;20281;-72
2022/10/18 07:42:46;;;;;;;15.80;12.30;;;16.90;99.90;;;;;;5019627;28;20680;-71
2022/10/18 07:45:12;;;;;;;14.13;10.03;;;17.00;99.90;;;;;;5033155;28;20651;-72
2022/10/18 07:47:38;;;;;;;13.07;11.30;;;17.00;99.90;;;;;;5032668;28;20217;-72
2022/10/18 07:50:04;;;;;;;19.13;9.67;;;17.00;99.90;;;;;;5033333;28;20577;-72
2022/10/18 07:52:30;;;;;;;13.30;9.27;;;17.10;99.90;;;;;;5032935;28;20656;-73
2022/10/18 07:54:56;;;;;;;20.43;8.23;;;17.20;99.90;;;;;;5033300;28;20186;-72
2022/10/18 07:57:22;;;;;;;15.63;8.67;;;17.20;99.90;;;;;;5032679;28;20278;-72
2022/10/18 07:59:54;;;;;;;8.93;7.50;;;17.40;99.90;;;;;;5031595;28;20202;-72
2022/10/18 08:02:21;;;;;;;11.30;8.27;;;17.50;99.90;;;;;;5033220;28;20253;-73
2022/10/18 08:04:46;;;;;;;12.80;11.47;;;17.60;99.90;;;;;;5031032;28;20229;-72
2022/10/18 08:07:12;;;;;;;18.07;16.80;;;17.70;99.90;;;;;;5019346;28;20211;-75
2022/10/18 08:09:38;;;;;;;25.60;23.90;;;17.80;99.90;;;;;;5022768;28;20208;-75
2022/10/18 08:12:04;;;;;;;41.90;39.23;;;18.00;99.90;;;;;;5031384;28;20193;-75
2022/10/18 08:14:30;;;;;;;62.23;58.23;;;18.10;99.90;;;;;;5031396;28;20237;-75
2022/10/18 08:16:55;;;;;;;63.57;59.40;;;18.20;99.90;;;;;;5031263;28;20209;-75
2022/10/18 08:19:21;;;;;;;69.20;64.80;;;18.40;99.90;;;;;;5032332;28;20276;-75
2022/10/18 08:21:47;;;;;;;45.10;42.37;;;18.50;99.90;;;;;;5031394;28;20186;-75
2022/10/18 08:24:13;;;;;;;38.13;35.90;;;18.60;99.90;;;;;;5031551;28;20187;-75
2022/10/18 08:26:38;;;;;;;22.37;20.80;;;18.90;99.90;;;;;;5032705;28;20254;-76
2022/10/18 08:29:04;;;;;;;11.87;10.63;;;19.10;99.90;;;;;;5032327;28;20249;-75
2022/10/18 08:31:30;;;;;;;14.13;10.07;;;19.30;99.90;;;;;;5033129;28;20659;-76
2022/10/18 08:33:56;;;;;;;13.57;12.37;;;19.40;99.90;;;;;;5022626;28;20175;-76
2022/10/18 08:36:22;;;;;;;19.23;17.70;;;19.80;99.90;;;;;;5013734;28;20790;-77
2022/10/18 08:38:48;;;;;;;24.53;22.53;;;20.30;99.90;;;;;;5014383;28;20207;-77
2022/10/18 08:41:21;;;;;;;20.40;18.73;;;20.70;99.90;;;;;;5032459;28;20661;-77
2022/10/18 08:44:11;;;;;;;14.60;10.27;;;21.20;99.90;;;;;;5031933;28;20187;-76
2022/10/18 08:46:41;;;;;;;9.88;7.35;;;21.40;99.90;;;;;;5034727;28;20301;-77
2022/10/18 08:49:18;;;;;;;16.50;6.95;;;21.60;99.90;;;;;;5033259;28;20195;-75
2022/10/18 08:51:47;;;;;;;11.55;5.65;;;21.70;99.90;;;;;;5024465;28;20172;-76
2022/10/18 08:54:21;;;;;;;56.20;53.03;;;22.10;99.90;;;;;;5011589;28;20184;-79
2022/10/18 08:57:01;;;;;;;74.03;69.72;;;22.70;99.90;;;;;;5011094;28;20217;-76
2022/10/18 08:59:39;;;;;;;40.78;38.30;;;23.10;99.90;;;;;;5012572;28;20230;-76
2022/10/18 09:02:27;;;;;;;36.00;33.58;;;23.40;99.90;;;;;;5011214;28;20191;-76
2022/10/18 09:05:23;;;;;;;37.28;34.88;;;23.50;99.90;;;;;;5012297;28;20593;-76
2022/10/18 09:08:19;;;;;;;28.48;26.45;;;24.10;99.90;;;;;;5011794;28;20218;-76
2022/10/18 09:11:09;;;;;;;32.38;29.95;;;24.70;99.90;;;;;;5010772;28;20199;-76
2022/10/18 09:14:01;;;;;;;37.42;35.28;;;25.20;99.90;;;;;;5010806;28;20653;-75
2022/10/18 09:16:38;;;;;;;41.10;38.70;;;24.90;99.90;;;;;;4995096;28;20213;-76
2022/10/18 09:19:25;;;;;;;59.58;56.10;;;24.50;99.90;;;;;;5011559;28;20273;-76
2022/10/18 09:21:59;;;;;;;52.60;49.47;;;24.70;99.90;;;;;;5045044;22;20222;-77
2022/10/18 09:24:55;;;;;;;37.08;35.10;;;25.30;99.90;;;;;;5033115;28;20186;-76
2022/10/18 09:27:31;;;;;;;19.90;18.15;;;25.60;99.90;;;;;;5032039;28;20219;-77
2022/10/18 09:30:18;;;;;;;23.75;22.00;;;24.90;99.90;;;;;;5031971;28;20186;-77
2022/10/18 09:33:10;;;;;;;12.60;11.85;;;25.20;99.90;;;;;;5049183;28;20209;-76
2022/10/18 09:35:47;;;;;;;6.55;5.25;;;25.80;99.90;;;;;;4997577;28;20210;-76
2022/10/18 09:38:18;;;;;;;6.65;6.05;;;25.90;99.90;;;;;;5031398;28;20186;-77
2022/10/18 09:41:07;;;;;;;5.55;5.15;;;25.00;99.90;;;;;;5033685;28;20179;-76
2022/10/18 09:43:50;;;;;;;15.40;8.98;;;24.30;99.90;;;;;;5028076;28;20197;-75
2022/10/18 09:46:20;;;;;;;14.98;12.95;;;23.80;99.90;;;;;;5029767;28;20334;-76
2022/10/18 09:48:55;;;;;;;21.42;19.95;;;23.60;99.90;;;;;;5029705;28;20571;-76
2022/10/18 09:51:27;;;;;;;30.45;28.20;;;23.50;99.90;;;;;;5039545;28;20209;-76
2022/10/18 09:54:16;;;;;;;28.58;26.95;;;23.40;99.90;;;;;;5041372;28;20534;-76
2022/10/18 09:56:53;;;;;;;29.75;27.73;;;23.30;99.90;;;;;;5044427;28;20186;-77
2022/10/18 09:59:34;;;;;;;24.52;22.63;;;24.10;99.90;;;;;;5044255;28;20664;-76
2022/10/18 10:02:00;;;;;;;27.08;25.35;;;24.20;99.90;;;;;;5032511;28;20569;-77
2022/10/18 10:04:26;;;;;;;43.92;41.30;;;23.90;99.90;;;;;;5032243;28;20190;-77
2022/10/18 10:06:54;;;;;;;44.47;41.60;;;23.70;99.90;;;;;;5033625;28;20210;-76
2022/10/18 10:09:30;;;;;;;22.67;21.15;;;23.90;99.90;;;;;;5033588;28;20182;-79
2022/10/18 10:11:56;;;;;;;41.45;38.92;;;24.30;99.90;;;;;;5031192;28;20213;-76
2022/10/18 10:14:26;;;;;;;41.75;38.80;;;24.80;99.90;;;;;;5031091;28;20551;-76
2022/10/18 10:16:53;;;;;;;33.13;30.42;;;24.90;99.90;;;;;;5032297;28;20207;-76
2022/10/18 10:19:29;;;;;;;22.48;20.77;;;24.70;99.90;;;;;;5058090;28;20205;-74
2022/10/18 10:22:01;;;;;;;19.58;18.38;;;25.00;99.90;;;;;;5055874;28;20221;-76
2022/10/18 10:24:36;;;;;;;11.32;10.20;;;25.20;99.90;;;;;;5052383;28;20189;-75
2022/10/18 10:27:05;;;;;;;9.02;8.05;;;25.30;99.90;;;;;;5050787;28;20213;-76
2022/10/18 10:29:52;;;;;;;11.10;10.07;;;24.60;99.90;;;;;;5056843;28;20596;-77
2022/10/18 10:32:20;;;;;;;11.82;11.00;;;24.10;99.90;;;;;;5054372;28;20232;-77
2022/10/18 10:34:46;;;;;;;28.48;26.30;;;23.60;99.90;;;;;;5049924;28;20170;-77
2022/10/18 10:37:34;;;;;;;20.80;19.50;;;23.50;99.90;;;;;;5041586;28;20608;-78
2022/10/18 10:40:15;;;;;;;32.33;30.30;;;23.70;99.90;;;;;;5039837;28;20286;-77
2022/10/18 10:43:05;;;;;;;40.13;37.78;;;23.20;99.90;;;;;;5032965;28;20696;-78
2022/10/18 10:45:40;;;;;;;17.50;16.20;;;22.90;99.90;;;;;;5031923;28;20190;-78
2022/10/18 10:48:17;;;;;;;48.33;45.78;;;22.40;99.90;;;;;;5033154;28;20927;-77
2022/10/18 10:51:09;;;;;;;53.78;50.78;;;22.70;99.90;;;;;;5031398;28;20228;-78
2022/10/18 10:53:56;;;;;;;40.63;37.60;;;23.00;99.90;;;;;;5013159;28;20188;-78
2022/10/18 10:56:24;;;;;;;81.20;76.90;;;23.20;99.90;;;;;;5013478;28;20266;-78
2022/10/18 10:58:51;;;;;;;178.25;168.85;;;22.90;99.90;;;;;;5013203;28;20238;-78
2022/10/18 11:01:32;;;;;;;324.80;308.10;;;22.60;99.90;;;;;;5028772;28;20215;-77
2022/10/18 11:04:19;;;;;;;212.23;201.82;;;22.40;99.90;;;;;;5013123;28;20187;-78
2022/10/18 11:07:13;;;;;;;254.05;241.43;;;22.90;99.90;;;;;;5014237;28;20207;-77
2022/10/18 11:10:11;;;;;;;85.70;81.30;;;24.30;99.90;;;;;;5032765;28;20215;-77
2022/10/18 11:12:44;;;;;;;33.97;31.80;;;25.20;99.90;;;;;;5039095;28;20206;-77
2022/10/18 11:15:12;;;;;;;34.05;31.85;;;25.50;99.90;;;;;;5030366;28;20267;-78
2022/10/18 11:17:38;;;;;;;14.80;13.60;;;26.10;99.90;;;;;;5058256;28;20174;-79
2022/10/18 11:20:09;;;;;;;9.77;7.03;;;26.50;99.90;;;;;;5046323;28;20282;-77
2022/10/18 11:22:39;;;;;;;8.52;7.85;;;27.80;99.90;;;;;;5034228;28;20223;-78
2022/10/18 11:25:05;;;;;;;7.25;5.07;;;28.50;99.90;;;;;;5017325;28;20191;-77
2022/10/18 11:27:40;;;;;;;7.78;6.82;;;28.60;99.90;;;;;;5021499;28;20202;-77
2022/10/18 11:30:32;;;;;;;7.82;5.20;;;28.80;99.90;;;;;;5037490;28;20194;-77
2022/10/18 11:33:14;;;;;;;6.57;6.05;;;29.90;99.90;;;;;;5037444;28;20680;-76
2022/10/18 11:35:53;;;;;;;5.03;4.65;;;30.00;99.90;;;;;;5038215;28;20225;-77
2022/10/18 11:38:25;;;;;;;7.18;4.20;;;30.20;99.90;;;;;;5036879;28;20206;-77
2022/10/18 11:41:10;;;;;;;8.02;4.63;;;29.80;99.60;;;;;;5033814;28;20186;-76
2022/10/18 11:43:44;;;;;;;6.07;4.90;;;29.30;99.50;;;;;;5051675;28;20276;-77
2022/10/18 11:46:26;;;;;;;8.90;4.50;;;28.20;99.90;;;;;;5055983;28;20185;-76
2022/10/18 11:49:04;;;;;;;6.85;6.05;;;27.10;99.90;;;;;;5043743;28;20182;-76
2022/10/18 11:51:53;;;;;;;7.57;6.45;;;27.10;99.90;;;;;;5016636;28;20230;-78
2022/10/18 11:54:41;;;;;;;8.05;7.43;;;27.30;99.90;;;;;;4991605;28;20187;-78
2022/10/18 11:57:24;;;;;;;7.15;6.45;;;27.20;99.90;;;;;;5047484;28;20171;-77
2022/10/18 12:00:05;;;;;;;7.65;7.10;;;26.80;99.90;;;;;;5042554;28;20775;-77
2022/10/18 12:02:40;;;;;;;6.70;5.07;;;26.20;99.90;;;;;;5031891;28;20203;-77
2022/10/18 12:05:08;;;;;;;5.30;4.80;;;25.30;99.90;;;;;;5045525;28;20170;-76
2022/10/18 12:07:42;;;;;;;8.60;7.22;;;24.50;99.90;;;;;;5038885;28;20234;-77
2022/10/18 12:10:15;;;;;;;9.63;8.75;;;23.90;99.90;;;;;;5037482;28;20175;-77
2022/10/18 12:12:50;;;;;;;15.85;14.48;;;23.50;99.90;;;;;;5036064;28;20226;-78
2022/10/18 12:15:25;;;;;;;24.83;22.92;;;23.20;99.90;;;;;;5037778;28;20270;-76
2022/10/18 12:17:54;;;;;;;26.63;24.95;;;23.20;99.90;;;;;;5040041;28;20186;-76
2022/10/18 12:20:39;;;;;;;28.05;25.60;;;23.60;99.90;;;;;;5043788;28;20210;-76
2022/10/18 12:23:12;;;;;;;22.90;21.38;;;24.10;99.90;;;;;;5035878;28;20194;-77
2022/10/18 12:25:42;;;;;;;15.95;14.82;;;25.10;99.90;;;;;;5035380;28;20187;-78
2022/10/18 12:28:36;;;;;;;20.15;18.92;;;25.00;99.90;;;;;;5033817;28;20206;-78
2022/10/18 12:31:26;;;;;;;29.67;27.73;;;24.10;99.90;;;;;;5035264;28;20570;-78
2022/10/18 12:34:04;;;;;;;30.52;28.73;;;23.50;99.90;;;;;;5034665;28;20229;-78
2022/10/18 12:36:55;;;;;;;13.18;12.13;;;23.70;99.90;;;;;;5042490;28;20275;-77
2022/10/18 12:39:27;;;;;;;7.65;6.93;;;23.70;99.90;;;;;;5046404;28;20205;-77
2022/10/18 12:41:55;;;;;;;8.50;7.80;;;23.70;99.90;;;;;;5040156;28;20214;-77
2022/10/18 12:44:32;;;;;;;41.75;39.65;;;25.20;99.90;;;;;;5037404;28;20175;-77
2022/10/18 12:47:01;;;;;;;36.55;34.13;;;26.70;99.90;;;;;;5034307;28;20277;-77
2022/10/18 12:49:38;;;;;;;12.05;10.07;;;27.50;99.90;;;;;;5034217;28;20644;-77